Time;durP1;ratioP1;P1;durP2;ratioP2;P2;SDS_P1;SDS_P2;PMS_P1;PMS_P2;Temp;Humidity;BMP_temperature;BMP_pressure;BME280_temperature;BME280_humidity;BME280_pressure;Samples;Min_cycle;Max_cycle;Signal;HPM_P1;HPM_P2
2022/07/20 00:00:42;;;;;;;19.33;15.20;;;26.10;58.30;;;;;;5090823;28;20213;-74
2022/07/20 00:03:11;;;;;;;23.20;17.17;;;26.10;56.40;;;;;;5090487;28;20205;-71
2022/07/20 00:05:40;;;;;;;18.30;15.55;;;26.00;55.50;;;;;;5090707;28;20239;-72
2022/07/20 00:08:07;;;;;;;17.00;15.27;;;26.00;54.60;;;;;;5090584;28;20251;-76
2022/07/20 00:13:19;;;;;;;15.73;14.05;;;25.70;55.10;;;;;;5090368;28;20216;-75
2022/07/20 00:15:46;;;;;;;16.90;12.88;;;25.60;55.40;;;;;;5090552;28;20690;-73
2022/07/20 00:18:13;;;;;;;16.98;13.85;;;25.70;54.00;;;;;;5090285;28;20241;-71
2022/07/20 00:20:42;;;;;;;14.82;13.35;;;25.60;55.40;;;;;;5090597;28;20206;-73
2022/07/20 00:23:09;;;;;;;16.40;12.88;;;25.50;55.40;;;;;;5090222;28;20213;-75
2022/07/20 00:25:36;;;;;;;19.20;13.00;;;25.40;56.60;;;;;;5090063;28;20732;-72
2022/07/20 00:28:03;;;;;;;15.65;12.52;;;25.30;54.80;;;;;;5085162;28;20606;-71
2022/07/20 00:30:30;;;;;;;17.98;12.40;;;25.30;56.70;;;;;;5081428;28;20205;-73
2022/07/20 00:32:57;;;;;;;14.40;11.52;;;25.30;55.40;;;;;;5090886;28;20209;-72
2022/07/20 00:35:24;;;;;;;15.48;11.52;;;25.40;57.00;;;;;;5090392;28;20202;-73
2022/07/20 00:37:52;;;;;;;14.02;11.05;;;25.40;54.50;;;;;;5090335;28;20291;-72
2022/07/20 00:40:19;;;;;;;16.25;11.50;;;25.50;54.80;;;;;;5089941;28;20705;-69
2022/07/20 00:42:46;;;;;;;15.75;12.77;;;25.50;56.00;;;;;;5090168;28;20263;-69
2022/07/20 00:45:13;;;;;;;14.50;12.30;;;25.40;55.60;;;;;;5093503;28;20229;-69
2022/07/20 00:47:40;;;;;;;15.15;13.50;;;25.30;55.50;;;;;;5094744;28;20201;-70
2022/07/20 00:50:09;;;;;;;20.60;13.82;;;25.30;58.00;;;;;;5093948;28;20242;-69
2022/07/20 00:52:37;;;;;;;14.93;12.73;;;25.30;56.00;;;;;;5094386;28;20283;-69
2022/07/20 00:55:07;;;;;;;15.52;13.93;;;25.40;58.00;;;;;;5093870;28;20201;-71
2022/07/20 00:57:34;;;;;;;16.65;13.40;;;25.30;55.30;;;;;;5094282;28;20205;-69
2022/07/20 01:00:01;;;;;;;15.70;14.10;;;25.20;57.80;;;;;;5093874;28;20270;-69
2022/07/20 01:02:28;;;;;;;17.85;12.85;;;25.20;56.30;;;;;;5094445;28;20205;-70
2022/07/20 01:04:55;;;;;;;15.05;13.02;;;25.20;56.10;;;;;;5093781;28;20288;-68
2022/07/20 01:07:22;;;;;;;25.08;12.75;;;25.20;56.90;;;;;;5075622;28;20259;-67
2022/07/20 01:09:49;;;;;;;14.10;12.55;;;25.10;57.30;;;;;;5086785;28;20263;-72
2022/07/20 01:12:17;;;;;;;16.42;14.32;;;25.10;57.30;;;;;;5087590;28;20213;-71
2022/07/20 01:14:45;;;;;;;12.77;11.35;;;25.10;56.60;;;;;;5093506;28;20684;-67
2022/07/20 01:17:12;;;;;;;14.00;12.52;;;25.00;57.30;;;;;;5093601;28;20314;-69
2022/07/20 01:19:39;;;;;;;15.27;13.85;;;25.10;57.20;;;;;;5094091;28;20266;-68
2022/07/20 01:22:08;;;;;;;18.75;15.43;;;25.10;58.00;;;;;;5093273;28;20210;-68
2022/07/20 01:24:35;;;;;;;18.00;16.00;;;25.00;58.90;;;;;;5089827;28;20318;-69
2022/07/20 01:27:05;;;;;;;19.58;16.73;;;25.00;59.50;;;;;;5093270;28;20668;-69
2022/07/20 01:29:32;;;;;;;19.25;16.10;;;25.00;58.80;;;;;;5079006;28;20734;-73
2022/07/20 01:31:59;;;;;;;22.50;20.10;;;25.00;58.80;;;;;;5093664;28;20259;-69
2022/07/20 01:34:26;;;;;;;23.02;19.23;;;24.80;60.00;;;;;;5093541;28;20250;-67
2022/07/20 01:36:53;;;;;;;20.02;17.95;;;24.80;61.20;;;;;;5093879;28;20213;-69
2022/07/20 01:39:22;;;;;;;22.50;18.75;;;24.80;60.10;;;;;;5093175;28;20237;-72
2022/07/20 01:41:52;;;;;;;21.65;17.92;;;24.70;60.40;;;;;;5093708;28;20212;-69
2022/07/20 01:44:21;;;;;;;19.73;14.85;;;24.80;61.20;;;;;;5092991;28;20282;-73
2022/07/20 01:46:48;;;;;;;23.05;15.02;;;24.90;61.70;;;;;;5088713;28;20654;-72
2022/07/20 01:49:15;;;;;;;14.00;11.60;;;25.00;61.40;;;;;;5072571;28;20210;-68
2022/07/20 01:51:42;;;;;;;14.88;12.50;;;24.90;61.00;;;;;;5074065;28;20559;-71
2022/07/20 01:54:09;;;;;;;15.55;13.18;;;24.90;61.30;;;;;;5082826;28;20669;-69
2022/07/20 01:56:40;;;;;;;14.18;12.90;;;24.90;91.90;;;;;;5081992;28;20210;-72
2022/07/20 01:59:07;;;;;;;14.65;13.07;;;24.80;63.40;;;;;;5087256;28;20205;-70
2022/07/20 02:01:34;;;;;;;16.13;12.98;;;24.50;61.50;;;;;;5092666;28;20259;-71
2022/07/20 02:04:01;;;;;;;14.82;13.13;;;24.50;61.50;;;;;;5092012;28;20209;-71
2022/07/20 02:06:28;;;;;;;16.35;14.13;;;24.60;62.50;;;;;;5079676;28;20225;-72
2022/07/20 02:08:55;;;;;;;14.55;13.10;;;24.80;63.70;;;;;;5093404;28;20282;-76
2022/07/20 02:11:22;;;;;;;15.93;13.88;;;24.70;62.60;;;;;;5092294;28;20251;-75
2022/07/20 02:13:51;;;;;;;19.83;15.73;;;24.70;63.90;;;;;;5092506;28;20245;-75
2022/07/20 02:16:17;;;;;;;15.82;13.88;;;24.60;61.80;;;;;;5092385;28;20197;-75
2022/07/20 02:18:45;;;;;;;18.95;15.18;;;24.50;61.80;;;;;;5092913;28;20364;-68
2022/07/20 02:21:12;;;;;;;19.80;14.85;;;24.60;61.10;;;;;;5091089;28;20235;-71
2022/07/20 02:23:39;;;;;;;15.68;14.00;;;24.50;60.40;;;;;;5079980;28;20735;-71
2022/07/20 02:26:06;;;;;;;18.98;14.40;;;24.30;59.90;;;;;;5092009;28;20285;-68
2022/07/20 02:28:34;;;;;;;14.93;13.38;;;24.40;60.70;;;;;;5092189;28;20677;-69
2022/07/20 02:31:02;;;;;;;14.48;13.07;;;24.40;59.90;;;;;;5092500;28;20256;-67
2022/07/20 02:33:29;;;;;;;16.27;12.63;;;24.40;60.60;;;;;;5092441;28;20255;-67
2022/07/20 02:35:56;;;;;;;12.85;11.52;;;24.50;60.00;;;;;;5092531;28;20245;-69
2022/07/20 02:38:23;;;;;;;11.98;10.25;;;24.50;61.10;;;;;;5091990;28;20198;-72
2022/07/20 02:40:51;;;;;;;8.63;7.15;;;24.50;59.30;;;;;;5092076;28;20244;-70
2022/07/20 02:43:18;;;;;;;12.75;7.40;;;24.50;57.80;;;;;;5091751;28;20341;-70
2022/07/20 02:45:45;;;;;;;7.10;5.53;;;24.50;56.90;;;;;;5092096;28;20269;-70
2022/07/20 02:48:13;;;;;;;6.78;5.53;;;24.40;56.10;;;;;;5091637;28;20258;-71
2022/07/20 02:50:42;;;;;;;6.82;5.72;;;24.40;54.80;;;;;;5091876;28;20250;-69
2022/07/20 02:53:12;;;;;;;7.68;4.65;;;24.30;55.10;;;;;;5091551;28;20250;-69
2022/07/20 02:55:40;;;;;;;8.27;3.90;;;24.40;55.50;;;;;;5087806;28;20241;-70
2022/07/20 02:58:07;;;;;;;7.15;3.80;;;24.20;52.50;;;;;;5081618;28;20609;-72
2022/07/20 03:00:35;;;;;;;5.88;4.00;;;24.10;53.90;;;;;;5091709;28;20575;-72
2022/07/20 03:03:02;;;;;;;4.22;3.35;;;24.10;55.00;;;;;;5091440;28;20677;-72
2022/07/20 03:05:30;;;;;;;4.70;3.00;;;24.00;54.10;;;;;;5091903;28;20247;-71
2022/07/20 03:07:57;;;;;;;6.00;3.58;;;24.00;55.00;;;;;;5091012;28;20250;-69
2022/07/20 03:10:24;;;;;;;6.90;4.18;;;23.90;54.50;;;;;;5091013;28;20263;-69
2022/07/20 03:12:51;;;;;;;5.72;3.78;;;23.90;53.60;;;;;;5091421;28;20244;-69
2022/07/20 03:15:18;;;;;;;6.75;3.70;;;23.80;53.50;;;;;;5091545;28;20206;-70
2022/07/20 03:17:47;;;;;;;6.97;4.05;;;23.80;53.70;;;;;;5091499;28;20202;-70
2022/07/20 03:20:15;;;;;;;4.18;3.15;;;23.80;53.10;;;;;;5091249;28;20569;-68
2022/07/20 03:22:43;;;;;;;7.07;3.78;;;23.70;52.90;;;;;;5091151;28;20630;-69
2022/07/20 03:25:11;;;;;;;5.05;3.50;;;23.70;54.00;;;;;;5091045;28;20225;-70
2022/07/20 03:27:38;;;;;;;5.75;3.40;;;23.60;54.90;;;;;;5091202;28;20246;-70
2022/07/20 03:30:07;;;;;;;7.47;2.55;;;23.70;54.60;;;;;;5090977;28;20254;-71
2022/07/20 03:32:34;;;;;;;6.85;3.35;;;23.80;55.10;;;;;;5091515;28;20237;-68
2022/07/20 03:35:01;;;;;;;5.78;3.65;;;23.80;56.00;;;;;;5090765;28;20224;-69
2022/07/20 03:37:28;;;;;;;7.15;2.95;;;23.70;54.30;;;;;;5091821;28;20216;-69
2022/07/20 03:39:57;;;;;;;4.10;2.92;;;23.60;55.10;;;;;;5091038;28;20251;-70
2022/07/20 03:42:24;;;;;;;7.40;2.88;;;23.50;54.50;;;;;;5091144;28;20247;-69
2022/07/20 03:44:51;;;;;;;6.28;3.47;;;23.40;54.90;;;;;;5091083;28;20292;-72
2022/07/20 03:47:18;;;;;;;5.35;2.88;;;23.40;55.00;;;;;;5090386;28;20652;-72
2022/07/20 03:49:44;;;;;;;3.10;2.50;;;23.50;55.10;;;;;;5090949;28;20255;-73
2022/07/20 03:52:11;;;;;;;6.60;3.03;;;23.60;55.70;;;;;;5090338;28;20627;-72
2022/07/20 03:54:38;;;;;;;5.25;3.20;;;23.60;56.70;;;;;;5090900;28;20266;-72
2022/07/20 03:57:07;;;;;;;6.72;3.40;;;23.60;56.10;;;;;;5076436;28;20353;-71
2022/07/20 03:59:34;;;;;;;3.80;2.80;;;23.40;55.50;;;;;;5090918;28;20213;-68
2022/07/20 04:02:01;;;;;;;6.72;3.10;;;23.30;55.80;;;;;;5090232;28;20625;-69
2022/07/20 04:04:28;;;;;;;9.32;3.22;;;23.20;86.10;;;;;;5091327;28;20638;-69
2022/07/20 04:06:55;;;;;;;5.47;3.53;;;23.30;56.30;;;;;;5091351;28;20319;-69
2022/07/20 04:12:05;;;;;;;5.57;3.33;;;23.40;57.40;;;;;;5090227;28;20213;-72
2022/07/20 04:14:33;;;;;;;5.80;2.50;;;23.40;55.90;;;;;;5090523;28;20738;-69
2022/07/20 04:17:00;;;;;;;4.38;2.67;;;23.20;54.90;;;;;;5090580;28;20258;-68
2022/07/20 04:19:27;;;;;;;6.35;3.13;;;23.20;56.80;;;;;;5090560;28;20213;-69
2022/07/20 04:21:55;;;;;;;7.90;3.50;;;23.30;55.90;;;;;;5091490;28;20296;-69
2022/07/20 04:24:23;;;;;;;7.80;3.17;;;23.30;56.20;;;;;;5090070;28;20212;-69
2022/07/20 04:26:50;;;;;;;3.95;2.83;;;23.20;55.90;;;;;;5090483;28;20662;-68
2022/07/20 04:29:17;;;;;;;5.82;3.13;;;23.30;56.00;;;;;;5089898;28;20285;-71
2022/07/20 04:31:45;;;;;;;5.68;3.47;;;23.20;55.80;;;;;;5090850;28;20206;-70
2022/07/20 04:34:12;;;;;;;7.03;3.47;;;23.30;57.30;;;;;;5090407;28;20241;-69
2022/07/20 04:36:39;;;;;;;3.90;2.95;;;23.20;55.60;;;;;;5090527;28;20209;-76
2022/07/20 04:39:06;;;;;;;4.13;2.78;;;23.30;56.20;;;;;;5089794;28;20258;-72
2022/07/20 04:41:33;;;;;;;6.50;3.55;;;23.20;54.80;;;;;;5090413;28;20202;-71
2022/07/20 04:44:00;;;;;;;4.15;2.78;;;23.30;56.30;;;;;;5090366;28;20205;-74
2022/07/20 04:46:28;;;;;;;9.00;3.38;;;23.20;56.10;;;;;;5090569;28;20229;-69
2022/07/20 04:48:56;;;;;;;3.83;3.30;;;23.10;55.20;;;;;;5090684;28;20296;-73
2022/07/20 04:51:23;;;;;;;5.28;3.03;;;23.10;54.60;;;;;;5090133;28;20281;-70
2022/07/20 04:53:51;;;;;;;4.78;2.83;;;23.10;54.40;;;;;;5090323;28;20210;-74
2022/07/20 04:56:19;;;;;;;3.50;3.20;;;23.20;56.30;;;;;;5080303;28;20259;-68
2022/07/20 04:58:47;;;;;;;3.97;2.70;;;23.10;55.20;;;;;;5085358;28;20309;-71
2022/07/20 05:01:15;;;;;;;6.30;3.28;;;23.10;55.40;;;;;;5089521;28;20715;-68
2022/07/20 05:03:41;;;;;;;3.95;2.42;;;23.00;57.20;;;;;;5090540;28;20205;-69
2022/07/20 05:06:10;;;;;;;9.90;3.30;;;23.00;54.20;;;;;;5075750;28;20221;-68
2022/07/20 05:08:37;;;;;;;4.28;3.38;;;22.90;54.00;;;;;;5090123;28;20220;-68
2022/07/20 05:11:04;;;;;;;4.90;2.70;;;22.90;53.30;;;;;;5089331;28;20201;-69
2022/07/20 05:13:31;;;;;;;6.15;3.45;;;22.90;52.60;;;;;;5090041;28;20263;-72
2022/07/20 05:15:58;;;;;;;4.53;4.13;;;22.90;52.90;;;;;;5090231;28;20214;-69
2022/07/20 05:18:25;;;;;;;4.43;4.03;;;23.00;52.60;;;;;;5090225;28;20319;-73
2022/07/20 05:20:52;;;;;;;4.80;3.67;;;23.00;52.70;;;;;;5090385;28;20228;-68
2022/07/20 05:23:20;;;;;;;4.18;3.33;;;23.00;52.30;;;;;;5089762;28;20400;-73
2022/07/20 05:25:49;;;;;;;5.50;4.38;;;23.00;52.30;;;;;;5089952;28;20298;-71
2022/07/20 05:28:18;;;;;;;7.63;4.65;;;23.00;53.70;;;;;;5089397;28;20202;-68
2022/07/20 05:30:45;;;;;;;8.35;3.85;;;23.00;52.60;;;;;;5091288;28;20228;-69
2022/07/20 05:33:12;;;;;;;5.78;4.97;;;23.10;52.70;;;;;;5093275;28;20201;-71
2022/07/20 05:35:39;;;;;;;9.63;4.00;;;23.10;52.40;;;;;;5093463;28;20202;-68
2022/07/20 05:38:06;;;;;;;9.70;3.80;;;23.00;51.40;;;;;;5093092;28;20201;-70
2022/07/20 05:40:34;;;;;;;10.70;4.50;;;23.00;51.90;;;;;;5093706;28;20209;-69
2022/07/20 05:43:01;;;;;;;7.40;4.72;;;23.10;51.40;;;;;;5093453;28;20205;-71
2022/07/20 05:45:28;;;;;;;11.43;4.63;;;23.10;62.10;;;;;;5093832;28;20205;-69
2022/07/20 05:47:55;;;;;;;7.25;5.35;;;23.20;52.30;;;;;;5093487;28;20269;-69
2022/07/20 05:50:22;;;;;;;7.85;5.53;;;23.30;51.70;;;;;;5092505;28;20201;-70
2022/07/20 05:52:50;;;;;;;9.38;4.85;;;23.20;51.90;;;;;;5093131;28;20241;-69
2022/07/20 05:55:17;;;;;;;7.63;4.95;;;23.30;51.00;;;;;;5090222;28;20495;-76
2022/07/20 05:57:45;;;;;;;10.38;4.25;;;23.30;82.50;;;;;;5089608;28;20259;-74
2022/07/20 06:00:13;;;;;;;7.60;4.35;;;23.30;50.90;;;;;;5092757;28;20209;-74
2022/07/20 06:02:40;;;;;;;4.88;3.72;;;23.30;50.20;;;;;;5085403;28;20282;-76
2022/07/20 06:05:08;;;;;;;6.35;5.20;;;23.30;51.20;;;;;;5092308;28;20267;-74
2022/07/20 06:07:35;;;;;;;5.60;4.18;;;23.30;50.90;;;;;;5092409;28;20322;-77
2022/07/20 06:10:02;;;;;;;6.35;4.68;;;23.20;51.20;;;;;;5092872;28;20580;-77
2022/07/20 06:12:29;;;;;;;4.65;4.13;;;23.30;50.60;;;;;;5092775;28;20220;-78
2022/07/20 06:14:57;;;;;;;5.88;4.50;;;23.40;52.10;;;;;;5087981;28;20213;-78
2022/07/20 06:17:24;;;;;;;5.75;3.58;;;23.40;50.20;;;;;;5092562;28;20586;-77
2022/07/20 06:19:51;;;;;;;6.75;4.38;;;23.30;50.60;;;;;;5092612;28;20209;-78
2022/07/20 06:22:18;;;;;;;3.92;3.13;;;23.30;50.60;;;;;;5089511;28;20209;-77
2022/07/20 06:24:45;;;;;;;4.93;3.13;;;23.20;49.00;;;;;;5092603;28;20205;-78
2022/07/20 06:27:12;;;;;;;5.03;2.90;;;23.10;49.50;;;;;;5092162;28;20324;-77
2022/07/20 06:29:39;;;;;;;3.75;2.95;;;23.20;50.10;;;;;;5092545;28;20230;-80
2022/07/20 06:32:08;;;;;;;4.03;3.10;;;23.30;49.40;;;;;;5092147;28;20201;-77
2022/07/20 06:34:35;;;;;;;4.03;3.05;;;23.30;50.00;;;;;;5092103;28;20350;-75
2022/07/20 06:37:02;;;;;;;5.53;3.28;;;23.30;48.00;;;;;;5092306;28;20271;-76
2022/07/20 06:39:29;;;;;;;4.50;3.10;;;23.30;49.50;;;;;;5092600;28;20278;-76
2022/07/20 06:41:56;;;;;;;4.30;3.20;;;23.20;48.70;;;;;;5092397;28;20272;-76
2022/07/20 06:44:23;;;;;;;4.88;2.83;;;23.20;49.40;;;;;;5091774;28;20243;-76
2022/07/20 06:46:50;;;;;;;7.55;3.60;;;23.40;48.90;;;;;;5091771;28;20270;-76
2022/07/20 06:49:18;;;;;;;5.43;3.13;;;23.70;47.90;;;;;;5091602;28;20213;-76
2022/07/20 06:51:45;;;;;;;8.65;3.55;;;23.70;47.50;;;;;;5091772;28;20209;-77
2022/07/20 06:54:12;;;;;;;3.17;2.72;;;23.70;46.80;;;;;;5091803;28;20209;-76
2022/07/20 06:56:39;;;;;;;5.88;3.03;;;23.60;46.10;;;;;;5079690;28;20210;-78
2022/07/20 06:59:06;;;;;;;7.47;3.15;;;23.60;48.40;;;;;;5082628;28;20205;-72
2022/07/20 07:01:33;;;;;;;3.88;3.45;;;23.60;46.70;;;;;;5085658;28;20730;-74
2022/07/20 07:04:00;;;;;;;5.10;3.40;;;23.50;46.60;;;;;;5090744;28;20205;-76
2022/07/20 07:06:28;;;;;;;6.07;3.20;;;23.60;45.80;;;;;;5092282;28;20233;-74
2022/07/20 07:08:55;;;;;;;6.55;3.58;;;23.60;46.80;;;;;;5092170;28;20206;-77
2022/07/20 07:11:22;;;;;;;5.35;2.45;;;23.80;47.40;;;;;;5091408;28;20197;-80
2022/07/20 07:13:49;;;;;;;4.15;2.67;;;23.80;45.50;;;;;;5091359;28;20239;-75
2022/07/20 07:16:16;;;;;;;7.47;4.35;;;23.70;44.50;;;;;;5086488;28;20202;-75
2022/07/20 07:18:43;;;;;;;3.75;2.92;;;23.70;45.70;;;;;;5082837;28;20201;-73
2022/07/20 07:21:11;;;;;;;7.82;1.90;;;23.70;45.10;;;;;;5081937;28;20205;-79
2022/07/20 07:23:39;;;;;;;4.40;2.38;;;23.70;45.40;;;;;;5083896;28;20205;-75
2022/07/20 07:26:06;;;;;;;5.57;2.55;;;23.70;44.80;;;;;;5091001;28;20230;-77
2022/07/20 07:28:33;;;;;;;5.88;2.35;;;23.70;44.80;;;;;;5091589;28;20210;-76
2022/07/20 07:31:00;;;;;;;4.32;2.28;;;23.80;44.10;;;;;;5091099;28;20262;-82
2022/07/20 07:33:28;;;;;;;4.72;2.20;;;23.90;45.90;;;;;;5091830;28;20205;-78
2022/07/20 07:35:55;;;;;;;4.10;2.60;;;24.00;44.90;;;;;;5087171;28;20205;-73
2022/07/20 07:38:22;;;;;;;5.63;2.53;;;23.80;44.20;;;;;;5082537;28;20201;-76
2022/07/20 07:40:51;;;;;;;4.28;2.63;;;23.80;44.10;;;;;;5080881;28;20259;-78
2022/07/20 07:43:18;;;;;;;3.47;2.10;;;24.00;45.60;;;;;;5072693;28;20616;-75
2022/07/20 07:45:46;;;;;;;3.45;2.35;;;24.00;44.00;;;;;;5081098;28;20205;-78
2022/07/20 07:48:12;;;;;;;3.38;2.40;;;24.10;44.20;;;;;;5077429;28;20336;-77
2022/07/20 07:50:41;;;;;;;3.85;1.90;;;24.10;43.10;;;;;;5075016;28;20222;-80
2022/07/20 07:53:09;;;;;;;3.50;2.05;;;24.30;44.30;;;;;;5082845;28;20681;-73
2022/07/20 07:55:36;;;;;;;4.50;1.73;;;24.20;43.30;;;;;;5074268;28;20734;-74
2022/07/20 07:58:05;;;;;;;4.97;2.38;;;24.20;43.40;;;;;;5077888;28;20206;-75
2022/07/20 08:00:32;;;;;;;4.28;2.50;;;24.20;42.70;;;;;;5075021;28;20202;-77
2022/07/20 08:02:59;;;;;;;8.95;4.50;;;24.30;43.50;;;;;;5071864;28;20210;-75
2022/07/20 08:05:26;;;;;;;6.25;3.33;;;24.70;43.10;;;;;;5074217;28;20319;-73
2022/07/20 08:07:53;;;;;;;3.22;2.33;;;24.80;42.10;;;;;;5072625;28;20275;-72
2022/07/20 08:10:20;;;;;;;6.30;3.10;;;24.80;41.90;;;;;;5074024;28;20267;-74
2022/07/20 08:12:47;;;;;;;2.92;1.98;;;24.60;41.80;;;;;;5074625;28;20251;-74
2022/07/20 08:15:16;;;;;;;3.92;2.67;;;24.60;42.10;;;;;;5074611;28;20654;-72
2022/07/20 08:17:45;;;;;;;3.50;2.05;;;24.90;41.70;;;;;;5077179;28;20202;-74
2022/07/20 08:20:13;;;;;;;2.72;2.20;;;24.90;40.80;;;;;;5070838;28;20206;-74
2022/07/20 08:22:40;;;;;;;2.35;2.13;;;24.90;42.00;;;;;;5079069;28;20216;-79
2022/07/20 08:25:08;;;;;;;3.70;2.22;;;25.00;41.70;;;;;;5075838;28;20202;-77
2022/07/20 08:27:35;;;;;;;5.55;2.97;;;25.10;40.50;;;;;;5089459;28;20716;-74
2022/07/20 08:30:02;;;;;;;3.05;2.80;;;25.20;40.60;;;;;;5078109;28;20252;-78
2022/07/20 08:32:30;;;;;;;8.77;3.10;;;25.10;40.30;;;;;;5072177;28;20677;-75
2022/07/20 08:34:57;;;;;;;7.13;2.83;;;25.40;40.60;;;;;;5072171;28;20202;-76
2022/07/20 08:37:24;;;;;;;2.78;2.35;;;25.40;40.00;;;;;;5074570;28;20213;-76
2022/07/20 08:39:52;;;;;;;2.00;1.90;;;25.40;40.50;;;;;;5072852;28;20678;-76
2022/07/20 08:42:19;;;;;;;4.57;2.40;;;25.60;40.10;;;;;;5069491;28;20212;-78
2022/07/20 08:44:46;;;;;;;6.13;2.72;;;25.80;40.40;;;;;;5070051;28;20253;-80
2022/07/20 08:47:14;;;;;;;5.50;2.35;;;26.00;40.50;;;;;;5072468;28;20222;-78
2022/07/20 08:49:46;;;;;;;8.80;3.53;;;26.60;39.10;;;;;;5070051;28;20674;-81
2022/07/20 08:52:13;;;;;;;4.95;2.30;;;26.70;39.80;;;;;;5072360;28;20279;-73
2022/07/20 08:54:40;;;;;;;6.65;3.10;;;26.90;38.30;;;;;;5072839;28;20255;-75
2022/07/20 08:57:09;;;;;;;4.75;2.53;;;26.60;37.70;;;;;;5069837;28;20206;-72
2022/07/20 08:59:36;;;;;;;6.82;2.35;;;26.40;36.80;;;;;;5089672;28;20255;-73
2022/07/20 09:02:05;;;;;;;3.80;2.80;;;26.10;38.10;;;;;;5077712;28;20740;-70
2022/07/20 09:04:33;;;;;;;4.97;2.55;;;26.20;37.10;;;;;;5070299;28;20210;-71
2022/07/20 09:07:01;;;;;;;9.00;2.67;;;26.50;35.70;;;;;;5073700;28;20229;-72
2022/07/20 09:09:28;;;;;;;5.63;2.83;;;26.40;37.10;;;;;;5074032;28;20351;-72
2022/07/20 09:11:55;;;;;;;5.85;3.42;;;26.40;34.90;;;;;;5073890;28;20210;-69
2022/07/20 09:14:42;;;;;;;5.85;3.38;;;26.50;36.40;;;;;;5073018;28;20210;-70
2022/07/20 09:17:20;;;;;;;5.57;2.50;;;26.60;36.50;;;;;;5080996;28;20216;-71
2022/07/20 09:20:06;;;;;;;4.28;3.58;;;26.60;35.00;;;;;;5093911;28;20259;-70
2022/07/20 09:22:37;;;;;;;4.82;3.25;;;26.60;35.10;;;;;;5093687;28;20219;-68
2022/07/20 09:25:10;;;;;;;3.83;2.97;;;26.60;34.10;;;;;;5093709;28;20616;-69
2022/07/20 09:27:37;;;;;;;5.50;2.72;;;26.60;35.30;;;;;;5093767;28;20233;-71
2022/07/20 09:30:07;;;;;;;4.85;3.15;;;26.70;34.50;;;;;;5093308;28;20213;-68
2022/07/20 09:32:50;;;;;;;5.53;3.30;;;27.20;33.80;;;;;;5093518;28;20580;-71
2022/07/20 09:35:18;;;;;;;3.22;2.92;;;27.70;36.60;;;;;;5093218;28;20201;-69
2022/07/20 09:37:46;;;;;;;3.45;3.13;;;28.00;33.60;;;;;;5082698;28;20234;-70
2022/07/20 09:40:14;;;;;;;4.88;3.55;;;28.10;33.10;;;;;;5089433;28;20278;-70
2022/07/20 09:42:42;;;;;;;3.90;3.13;;;27.80;32.20;;;;;;5093329;28;20740;-71
2022/07/20 09:45:23;;;;;;;3.40;3.10;;;27.70;32.40;;;;;;5092942;28;20260;-71
2022/07/20 09:48:08;;;;;;;44.85;9.38;;;28.10;33.40;;;;;;5093266;28;20232;-70
2022/07/20 09:50:38;;;;;;;6.70;3.28;;;28.60;33.20;;;;;;5093048;28;20259;-70
2022/07/20 09:53:07;;;;;;;5.13;3.13;;;28.80;32.00;;;;;;5093185;28;20210;-70
2022/07/20 09:55:35;;;;;;;7.35;3.70;;;29.60;33.10;;;;;;5090065;28;20253;-71
2022/07/20 09:58:03;;;;;;;4.95;2.63;;;29.20;32.50;;;;;;5081812;28;20282;-69
2022/07/20 10:00:31;;;;;;;6.82;3.08;;;28.70;32.10;;;;;;5092839;28;20267;-71
2022/07/20 10:03:01;;;;;;;3.42;3.13;;;28.80;32.30;;;;;;5093670;28;20262;-70
2022/07/20 10:05:31;;;;;;;16.33;4.35;;;29.00;32.90;;;;;;5093124;28;20209;-72
2022/07/20 10:08:02;;;;;;;3.90;3.40;;;29.00;31.80;;;;;;5093298;28;20312;-71
2022/07/20 10:10:31;;;;;;;4.32;4.03;;;28.90;32.70;;;;;;5092886;28;20210;-71
2022/07/20 10:12:59;;;;;;;4.53;3.35;;;28.20;31.20;;;;;;5076423;28;20648;-71
2022/07/20 10:15:43;;;;;;;23.75;4.88;;;28.20;31.90;;;;;;5077581;28;20256;-73
2022/07/20 10:18:11;;;;;;;6.35;3.40;;;28.50;31.40;;;;;;5072520;28;20202;-71
2022/07/20 10:20:39;;;;;;;4.80;3.03;;;28.90;32.00;;;;;;5073713;28;20210;-72
2022/07/20 10:23:39;;;;;;;6.50;4.22;;;28.90;31.80;;;;;;5073509;28;20574;-70
2022/07/20 10:26:26;;;;;;;5.85;3.15;;;28.60;32.00;;;;;;5075115;28;20681;-69
2022/07/20 10:29:00;;;;;;;4.95;3.60;;;28.80;32.20;;;;;;5074609;28;20274;-72
2022/07/20 10:31:47;;;;;;;4.28;3.22;;;28.70;31.30;;;;;;5072227;28;20285;-71
2022/07/20 10:34:35;;;;;;;4.70;4.10;;;29.00;31.70;;;;;;5071590;28;20206;-69
2022/07/20 10:37:28;;;;;;;8.02;4.60;;;28.80;31.70;;;;;;5073028;28;20257;-69
2022/07/20 10:40:14;;;;;;;5.13;3.55;;;29.70;32.20;;;;;;5071984;28;20584;-70
2022/07/20 10:42:45;;;;;;;6.65;3.80;;;30.20;32.50;;;;;;5071872;28;20244;-69
2022/07/20 10:45:31;;;;;;;4.10;3.65;;;29.70;29.20;;;;;;5071598;28;20206;-70
2022/07/20 10:48:00;;;;;;;4.47;4.07;;;30.20;31.40;;;;;;5071894;28;20233;-71
2022/07/20 10:50:31;;;;;;;4.65;4.07;;;30.00;29.50;;;;;;5072115;28;20209;-70
2022/07/20 10:53:20;;;;;;;4.25;3.47;;;30.20;28.00;;;;;;5071999;28;20670;-70
2022/07/20 10:55:54;;;;;;;5.35;4.22;;;29.20;28.90;;;;;;5071348;28;20589;-72
2022/07/20 10:58:24;;;;;;;3.70;3.40;;;29.70;29.80;;;;;;5083544;28;20236;-71
2022/07/20 11:00:53;;;;;;;4.93;4.07;;;29.80;28.40;;;;;;5091884;28;20205;-75
2022/07/20 11:03:23;;;;;;;94.95;11.07;;;29.40;27.10;;;;;;5091335;28;20210;-71
2022/07/20 11:06:04;;;;;;;5.53;3.55;;;29.10;28.80;;;;;;5091901;28;20201;-73
2022/07/20 11:08:32;;;;;;;14.07;5.90;;;29.00;27.40;;;;;;5091779;28;20773;-73
2022/07/20 11:10:59;;;;;;;6.25;4.93;;;28.60;28.00;;;;;;5091912;28;20202;-71
2022/07/20 11:13:27;;;;;;;3.92;3.63;;;28.30;28.00;;;;;;5091997;28;20221;-71
2022/07/20 11:15:58;;;;;;;5.25;3.25;;;28.80;27.60;;;;;;5092051;28;20262;-70
2022/07/20 11:18:27;;;;;;;6.22;4.68;;;29.00;27.60;;;;;;5091594;28;20573;-73
2022/07/20 11:20:56;;;;;;;5.45;4.25;;;28.70;28.30;;;;;;5091698;28;20639;-74
2022/07/20 11:23:25;;;;;;;5.47;3.53;;;28.50;27.80;;;;;;5091112;28;20258;-71
2022/07/20 11:25:54;;;;;;;5.10;4.20;;;28.90;27.30;;;;;;5091225;28;20206;-73
2022/07/20 11:28:23;;;;;;;5.72;4.38;;;28.70;26.20;;;;;;5081762;28;20756;-73
2022/07/20 11:30:53;;;;;;;4.70;4.07;;;28.90;26.80;;;;;;5084886;28;20205;-74
2022/07/20 11:33:28;;;;;;;5.82;4.07;;;29.10;26.90;;;;;;5091266;28;20210;-74
2022/07/20 11:35:56;;;;;;;4.85;4.13;;;29.30;27.80;;;;;;5091530;28;20266;-71
2022/07/20 11:38:24;;;;;;;6.03;3.40;;;29.50;26.60;;;;;;5090654;28;20202;-76
2022/07/20 11:41:02;;;;;;;4.85;4.40;;;29.30;26.70;;;;;;5091302;28;20900;-68
2022/07/20 11:43:29;;;;;;;6.15;4.15;;;29.20;26.40;;;;;;5091192;28;20205;-68
2022/07/20 11:46:11;;;;;;;3.97;3.53;;;29.40;26.30;;;;;;5091478;28;20205;-68
2022/07/20 11:48:38;;;;;;;6.13;3.72;;;29.30;26.10;;;;;;5090881;28;20229;-68
2022/07/20 11:51:06;;;;;;;5.85;3.95;;;29.80;54.10;;;;;;5090518;28;20357;-68
2022/07/20 11:53:35;;;;;;;6.00;4.35;;;30.00;27.20;;;;;;5090617;28;20201;-68
2022/07/20 11:56:05;;;;;;;6.35;4.72;;;29.90;25.50;;;;;;5083417;28;20206;-68
2022/07/20 11:58:33;;;;;;;4.68;4.22;;;29.50;25.50;;;;;;5083304;28;20209;-66
2022/07/20 12:01:02;;;;;;;7.43;4.75;;;28.50;24.50;;;;;;5083032;28;20206;-67
2022/07/20 12:03:34;;;;;;;5.50;4.90;;;28.20;24.10;;;;;;5070772;28;20236;-68
2022/07/20 12:06:03;;;;;;;6.70;6.10;;;28.20;25.20;;;;;;5076267;28;20265;-67
2022/07/20 12:08:30;;;;;;;7.75;5.25;;;28.20;23.90;;;;;;5072730;28;20230;-68
2022/07/20 12:10:58;;;;;;;7.63;6.07;;;28.40;26.10;;;;;;5070689;28;20259;-68
2022/07/20 12:13:26;;;;;;;7.78;5.25;;;29.30;26.40;;;;;;5070293;28;20206;-68
2022/07/20 12:16:00;;;;;;;5.68;5.18;;;29.90;24.90;;;;;;5069993;28;20208;-68
2022/07/20 12:18:44;;;;;;;6.82;4.85;;;30.10;25.50;;;;;;5070780;28;20213;-67
2022/07/20 12:21:14;;;;;;;5.55;5.15;;;30.80;26.60;;;;;;5069588;28;20602;-69
2022/07/20 12:23:43;;;;;;;8.75;4.68;;;30.50;24.10;;;;;;5070315;28;20213;-69
2022/07/20 12:26:27;;;;;;;5.70;5.13;;;30.20;24.10;;;;;;5069621;28;20267;-68
2022/07/20 12:28:56;;;;;;;7.93;5.55;;;29.80;24.50;;;;;;5070778;28;20294;-68
2022/07/20 12:31:24;;;;;;;6.53;4.82;;;29.70;23.90;;;;;;5069789;28;20197;-70
2022/07/20 12:34:10;;;;;;;6.22;5.55;;;29.30;24.60;;;;;;5070442;28;20210;-68
2022/07/20 12:36:39;;;;;;;5.18;4.70;;;29.90;24.60;;;;;;5070233;28;20263;-68
2022/07/20 12:39:10;;;;;;;6.68;5.53;;;30.40;24.50;;;;;;5069789;28;20259;-68
2022/07/20 12:41:38;;;;;;;7.40;6.63;;;30.80;23.60;;;;;;5074337;28;20696;-68
2022/07/20 12:44:24;;;;;;;8.50;5.63;;;30.30;23.60;;;;;;5074226;28;20235;-69
2022/07/20 12:46:52;;;;;;;7.10;5.47;;;30.30;22.80;;;;;;5074222;28;20298;-69
2022/07/20 12:49:21;;;;;;;7.10;6.22;;;30.60;22.80;;;;;;5073703;28;20286;-69
2022/07/20 12:51:48;;;;;;;6.72;5.03;;;30.60;23.20;;;;;;5078002;28;20260;-67
2022/07/20 12:54:15;;;;;;;8.40;5.95;;;30.50;24.20;;;;;;5083473;28;20673;-68
2022/07/20 12:56:43;;;;;;;7.28;5.63;;;30.60;23.00;;;;;;5075792;28;20263;-69